createdAt,value
2023-11-13T00:01:55.792Z,98448.28
2023-11-13T00:04:22.930Z,98469.69
2023-11-13T00:06:50.141Z,98474.50
2023-11-13T00:09:17.256Z,98461.38
2023-11-13T00:11:45.025Z,98470.03
2023-11-13T00:14:12.304Z,98474.50
2023-11-13T00:16:39.517Z,98481.44
2023-11-13T00:19:06.740Z,98494.22
2023-11-13T00:21:34.275Z,98489.75
2023-11-13T00:24:01.429Z,98526.16
2023-11-13T00:26:28.507Z,98518.03
2023-11-13T00:28:56.509Z,98525.66
2023-11-13T00:31:23.780Z,98521.69
2023-11-13T00:33:51.035Z,98515.00
2023-11-13T00:36:18.154Z,98515.00
2023-11-13T00:38:45.313Z,98543.22
2023-11-13T00:41:12.946Z,98544.75
2023-11-13T00:43:40.510Z,98553.16
2023-11-13T00:46:08.244Z,98556.84
2023-11-13T00:48:38.731Z,98568.59
2023-11-13T00:51:06.018Z,98567.91
2023-11-13T00:53:37.861Z,98570.41
2023-11-13T00:56:05.740Z,98586.06
2023-11-13T00:58:36.945Z,98580.34
2023-11-13T01:01:08.206Z,98570.06
2023-11-13T01:03:36.117Z,98585.53
2023-11-13T01:06:03.999Z,98588.31
2023-11-13T01:08:31.297Z,98598.94
2023-11-13T01:10:58.491Z,98613.84
2023-11-13T01:13:25.761Z,98620.13
2023-11-13T01:15:55.910Z,98622.56
2023-11-13T01:18:24.584Z,98623.88
2023-11-13T01:20:51.832Z,98642.47
2023-11-13T01:23:19.231Z,98648.63
2023-11-13T01:25:49.013Z,98646.78
2023-11-13T01:28:17.167Z,98644.66
2023-11-13T01:30:44.504Z,98648.69
2023-11-13T01:33:13.082Z,98653.00
2023-11-13T01:35:40.239Z,98658.31
2023-11-13T01:38:07.322Z,98650.19
2023-11-13T01:40:34.478Z,98664.97
2023-11-13T01:43:01.661Z,98674.16
2023-11-13T01:45:28.865Z,98690.63
2023-11-13T01:47:56.073Z,98700.28
2023-11-13T01:50:23.186Z,98707.41
2023-11-13T01:52:51.624Z,98712.88
2023-11-13T01:55:18.954Z,98715.88
2023-11-13T01:57:46.125Z,98729.16
2023-11-13T02:00:14.439Z,98734.81
2023-11-13T02:02:42.225Z,98724.47
2023-11-13T02:05:09.556Z,98725.59
2023-11-13T02:07:37.339Z,98716.97
2023-11-13T02:10:05.983Z,98731.22
2023-11-13T02:12:33.619Z,98733.06
2023-11-13T02:15:00.910Z,98731.09
2023-11-13T02:17:28.094Z,98731.22
2023-11-13T02:19:55.298Z,98741.72
2023-11-13T02:22:22.994Z,98740.88
2023-11-13T02:24:51.673Z,98735.56
2023-11-13T02:27:19.655Z,98747.69
2023-11-13T02:29:47.077Z,98761.66
2023-11-13T02:32:14.336Z,98773.41
2023-11-13T02:34:43.191Z,98782.06
2023-11-13T02:37:10.717Z,98787.25
2023-11-13T02:39:38.710Z,98784.59
2023-11-13T02:42:05.946Z,98799.53
2023-11-13T02:44:33.023Z,98799.69
2023-11-13T02:47:00.200Z,98804.16
2023-11-13T02:49:27.715Z,98816.06
2023-11-13T02:51:54.996Z,98818.72
2023-11-13T02:57:24.740Z,98806.44
2023-11-13T02:59:52.168Z,98831.00
2023-11-13T03:02:20.531Z,98844.28
2023-11-13T03:04:47.642Z,98844.97
2023-11-13T03:07:15.426Z,98860.38
2023-11-13T03:09:42.633Z,98871.53
2023-11-13T03:12:09.890Z,98878.53
2023-11-13T03:14:37.087Z,98885.78
2023-11-13T03:17:04.364Z,98898.09
2023-11-13T03:19:31.466Z,98905.78
2023-11-13T03:21:58.687Z,98926.06
2023-11-13T03:24:25.866Z,98926.06
2023-11-13T03:26:53.060Z,98931.66
2023-11-13T03:29:20.226Z,98957.09
2023-11-13T03:31:47.563Z,98963.25
2023-11-13T03:34:14.903Z,98975.50
2023-11-13T03:36:42.067Z,98988.00
2023-11-13T03:39:09.599Z,98991.63
2023-11-13T03:41:36.752Z,99001.56
2023-11-13T03:44:04.381Z,99013.03
2023-11-13T03:46:31.703Z,99024.47
2023-11-13T03:48:58.997Z,99034.97
2023-11-13T03:51:26.392Z,99036.63
2023-11-13T03:53:53.795Z,99047.94
2023-11-13T03:56:21.856Z,99043.78
2023-11-13T03:58:49.136Z,99048.38
2023-11-13T04:01:16.983Z,99046.56
2023-11-13T04:03:44.399Z,99055.22
2023-11-13T04:06:11.645Z,99059.53
2023-11-13T04:08:38.830Z,99077.03
2023-11-13T04:11:08.262Z,99078.31
2023-11-13T04:13:36.738Z,99074.81
2023-11-13T04:16:04.460Z,99102.75
2023-11-13T04:18:34.665Z,99099.69
2023-11-13T04:21:01.983Z,99102.75
2023-11-13T04:23:29.168Z,99119.53
2023-11-13T04:25:56.282Z,99128.50
2023-11-13T04:28:23.613Z,99155.63
2023-11-13T04:30:50.879Z,99162.88
2023-11-13T04:33:18.127Z,99179.66
2023-11-13T04:35:45.285Z,99195.47
2023-11-13T04:38:12.370Z,99216.28
2023-11-13T04:40:39.549Z,99236.69
2023-11-13T04:43:07.546Z,99243.81
2023-11-13T04:45:36.613Z,99255.28
2023-11-13T04:48:04.057Z,99271.94
2023-11-13T04:50:31.203Z,99276.81
2023-11-13T04:52:58.297Z,99290.28
2023-11-13T04:55:25.473Z,99309.00
2023-11-13T04:57:52.705Z,99322.00
2023-11-13T05:00:20.843Z,99330.97
2023-11-13T05:02:48.043Z,99336.28
2023-11-13T05:05:17.199Z,99353.06
2023-11-13T05:07:44.317Z,99366.34
2023-11-13T05:10:12.784Z,99383.94
2023-11-13T05:12:40.037Z,99387.88
2023-11-13T05:15:07.375Z,99401.16
2023-11-13T05:17:38.517Z,99406.72
2023-11-13T05:20:09.012Z,99423.38
2023-11-13T05:22:36.124Z,99432.19
2023-11-13T05:25:04.619Z,99460.16
2023-11-13T05:27:31.830Z,99470.34
2023-11-13T05:29:59.017Z,99496.38
2023-11-13T05:32:26.245Z,99509.53
2023-11-13T05:34:53.487Z,99523.81
2023-11-13T05:37:20.743Z,99529.25
2023-11-13T05:39:47.897Z,99556.53
2023-11-13T05:42:15.045Z,99569.81
2023-11-13T05:44:42.197Z,99591.06
2023-11-13T05:47:09.507Z,99615.00
2023-11-13T05:49:37.694Z,99633.34
2023-11-13T05:52:05.070Z,99650.81
2023-11-13T05:54:32.241Z,99673.66
2023-11-13T05:56:59.310Z,99701.06
2023-11-13T05:59:26.379Z,99712.66
2023-11-13T06:01:53.480Z,99740.22
2023-11-13T06:04:20.701Z,99764.00
2023-11-13T06:06:47.867Z,99777.28
2023-11-13T06:09:15.055Z,99799.53
2023-11-13T06:11:43.614Z,99819.69
2023-11-13T06:14:10.738Z,99845.44
2023-11-13T06:16:39.146Z,99866.94
2023-11-13T06:19:09.388Z,99893.28
2023-11-13T06:21:36.539Z,99911.75
2023-11-13T06:24:04.737Z,99939.19
2023-11-13T06:26:31.994Z,99959.59
2023-11-13T06:28:59.161Z,99964.78
2023-11-13T06:31:27.518Z,99991.50
2023-11-13T06:33:55.131Z,100018.66
2023-11-13T06:36:22.355Z,100039.91
2023-11-13T06:38:50.436Z,100074.25
2023-11-13T06:41:17.560Z,100097.06
2023-11-13T06:43:44.670Z,100122.56
2023-11-13T06:46:12.771Z,100127.41
2023-11-13T06:48:40.258Z,100166.19
2023-11-13T06:51:10.878Z,100180.31
2023-11-13T06:53:38.271Z,100212.13
2023-11-13T06:56:07.741Z,100239.56
2023-11-13T06:58:37.350Z,100268.69
2023-11-13T07:01:04.971Z,100290.81
2023-11-13T07:03:32.361Z,100310.88
2023-11-13T07:05:59.464Z,100337.34
2023-11-13T07:08:26.728Z,100364.56
2023-11-13T07:10:53.861Z,100392.63
2023-11-13T07:13:21.108Z,100422.59
2023-11-13T07:15:48.611Z,100432.16
2023-11-13T07:18:18.431Z,100449.81
2023-11-13T07:20:46.537Z,100476.31
2023-11-13T07:23:18.263Z,100507.66
2023-11-13T07:25:45.807Z,100524.47
2023-11-13T07:28:16.521Z,100561.06
2023-11-13T07:30:45.181Z,100583.91
2023-11-13T07:33:12.443Z,100620.59
2023-11-13T07:35:41.564Z,100646.03
2023-11-13T07:38:08.958Z,100670.00
2023-11-13T07:40:39.511Z,100699.16
2023-11-13T07:43:10.030Z,100741.19
2023-11-13T07:45:39.548Z,100757.03
2023-11-13T07:48:07.052Z,100780.69
2023-11-13T07:50:56.186Z,100805.38
2023-11-13T07:53:21.414Z,100814.97
2023-11-13T07:55:48.490Z,100856.50
2023-11-13T07:58:15.638Z,100878.50
2023-11-13T08:00:42.770Z,100899.00
2023-11-13T08:03:09.851Z,100920.16
2023-11-13T08:05:37.400Z,100964.03
2023-11-13T08:08:04.752Z,100978.13
2023-11-13T08:10:33.478Z,100989.44
2023-11-13T08:13:02.325Z,101016.78
2023-11-13T08:15:30.959Z,101036.09
2023-11-13T08:17:58.346Z,101065.91
2023-11-13T08:20:29.171Z,101086.06
2023-11-13T08:22:59.127Z,101123.16
2023-11-13T08:25:26.688Z,101154.16
2023-11-13T08:27:54.011Z,101192.94
2023-11-13T08:30:24.271Z,101229.13
2023-11-13T08:32:54.161Z,101253.84
2023-11-13T08:35:21.342Z,101276.47
2023-11-13T08:37:52.051Z,101332.03
2023-11-13T08:40:24.817Z,101362.59
2023-11-13T08:42:52.535Z,101370.44
2023-11-13T08:45:19.729Z,101427.00
2023-11-13T08:47:48.687Z,101474.44
2023-11-13T08:50:19.600Z,101480.59
2023-11-13T08:52:48.105Z,101515.75
2023-11-13T08:55:18.494Z,101550.03
2023-11-13T08:57:46.923Z,101573.63
2023-11-13T09:00:21.991Z,101619.34
2023-11-13T09:02:55.989Z,101685.13
2023-11-13T09:05:29.934Z,101729.53
2023-11-13T09:07:57.631Z,101793.78
2023-11-13T09:10:28.626Z,101835.38
2023-11-13T09:13:00.535Z,101913.72
2023-11-13T09:15:30.370Z,101927.91
2023-11-13T09:18:07.515Z,101903.69
2023-11-13T09:20:35.965Z,101905.03
2023-11-13T09:23:05.331Z,101920.88
2023-11-13T09:25:33.480Z,101945.53
2023-11-13T09:28:01.313Z,101988.59
2023-11-13T09:30:28.615Z,102001.84
2023-11-13T09:32:57.140Z,102063.81
2023-11-13T09:35:25.861Z,102066.59
2023-11-13T09:37:54.625Z,102089.13
2023-11-13T09:40:26.666Z,102113.88
2023-11-13T09:43:07.367Z,102117.50
2023-11-13T09:45:42.473Z,102149.19
2023-11-13T09:48:09.843Z,102195.88
2023-11-13T09:50:39.967Z,102193.78
2023-11-13T09:53:08.829Z,102306.69
2023-11-13T09:55:36.390Z,102365.31
2023-11-13T09:58:03.668Z,102470.53
2023-11-13T10:00:34.272Z,102541.78
2023-11-13T10:03:01.672Z,102646.09
2023-11-13T10:05:32.115Z,102799.38
2023-11-13T10:07:59.396Z,102884.81
2023-11-13T10:10:28.272Z,103003.19
2023-11-13T10:12:57.050Z,103103.84
2023-11-13T10:15:25.506Z,103239.91
2023-11-13T10:17:57.711Z,103325.28
2023-11-13T10:20:27.460Z,103433.97
2023-11-13T10:23:05.072Z,103574.69
2023-11-13T10:25:49.006Z,103654.19
2023-11-13T10:28:18.705Z,103780.63
2023-11-13T10:30:52.180Z,103936.66
2023-11-13T10:33:19.838Z,104077.28
2023-11-13T10:35:49.657Z,104197.75
2023-11-13T10:38:17.491Z,104320.84
2023-11-13T10:40:59.271Z,104438.63
2023-11-13T10:43:30.016Z,104532.31
2023-11-13T10:45:57.474Z,104694.63
2023-11-13T10:48:33.134Z,104790.94
2023-11-13T10:51:04.851Z,104840.88
2023-11-13T10:53:40.423Z,104949.78
2023-11-13T10:56:08.589Z,105036.38
2023-11-13T10:58:35.780Z,105145.28
2023-11-13T11:01:14.610Z,105227.47
2023-11-13T11:03:46.380Z,105298.88
2023-11-13T11:06:17.409Z,105401.53
2023-11-13T11:08:45.610Z,105521.19
2023-11-13T11:11:13.926Z,105606.03
2023-11-13T11:13:45.826Z,105707.78
2023-11-13T11:16:16.357Z,105792.63
2023-11-13T11:19:05.853Z,105916.75
2023-11-13T11:21:51.245Z,105988.22
2023-11-13T11:24:21.333Z,106085.56
2023-11-13T11:26:55.608Z,106230.28
2023-11-13T11:29:33.146Z,106324.97
2023-11-13T11:32:02.121Z,106437.47
2023-11-13T11:34:32.165Z,106609.84
2023-11-13T11:37:00.406Z,106746.50
2023-11-13T11:39:28.133Z,106911.78
2023-11-13T11:41:55.945Z,107074.34
2023-11-13T11:44:43.030Z,107298.59
2023-11-13T11:47:22.666Z,107280.78
2023-11-13T11:49:51.263Z,107333.47
2023-11-13T11:52:18.585Z,107402.25
2023-11-13T11:54:47.133Z,107458.56
2023-11-13T11:57:15.631Z,107449.56
2023-11-13T11:59:45.240Z,107524.78
2023-11-13T12:02:12.351Z,107556.00
2023-11-13T12:04:39.790Z,107636.47
2023-11-13T12:07:10.604Z,107674.00
2023-11-13T12:09:41.630Z,107738.34
2023-11-13T12:12:09.268Z,107830.38
2023-11-13T12:14:36.448Z,107922.44
2023-11-13T12:17:04.713Z,108018.94
2023-11-13T12:19:32.002Z,108147.66
2023-11-13T12:21:59.128Z,108273.00
2023-11-13T12:24:26.408Z,108382.94
2023-11-13T12:26:57.510Z,108512.88
2023-11-13T12:29:24.661Z,108580.91
2023-11-13T12:31:57.200Z,108702.72
2023-11-13T12:34:25.517Z,108785.25
2023-11-13T12:36:52.698Z,108896.09
2023-11-13T12:39:27.393Z,109028.78
2023-11-13T12:41:54.795Z,109140.94
2023-11-13T12:44:23.989Z,109279.00
2023-11-13T12:46:51.667Z,109433.88
2023-11-13T12:49:19.007Z,109543.00
2023-11-13T12:51:50.193Z,109697.38
2023-11-13T12:54:17.492Z,109247.75
2023-11-13T12:56:48.718Z,108555.28
2023-11-13T12:59:19.214Z,107096.16
2023-11-13T13:01:47.282Z,108288.13
2023-11-13T13:04:16.727Z,108846.72
2023-11-13T13:06:44.512Z,109217.47
2023-11-13T13:09:13.264Z,109538.91
2023-11-13T13:11:42.109Z,109736.75
2023-11-13T13:14:10.022Z,110156.81
2023-11-13T13:16:40.263Z,110585.09
2023-11-13T13:19:10.478Z,110886.88
2023-11-13T13:21:37.872Z,111031.81
2023-11-13T13:24:08.428Z,111000.13
2023-11-13T13:26:40.155Z,111264.78
2023-11-13T13:29:09.990Z,111552.06
2023-11-13T13:31:37.457Z,111998.88
2023-11-13T13:34:06.310Z,112420.50
2023-11-13T13:36:33.495Z,112848.78
2023-11-13T13:39:00.615Z,113369.19
2023-11-13T13:41:27.898Z,113790.56
2023-11-13T13:43:56.080Z,114130.38
2023-11-13T13:46:23.645Z,114565.41
2023-11-13T13:48:51.526Z,115074.81
2023-11-13T13:51:18.686Z,115622.59
2023-11-13T13:53:47.797Z,116145.06
2023-11-13T13:56:21.235Z,116583.00
2023-11-13T13:58:48.721Z,116966.78
2023-11-13T14:01:16.295Z,117584.72
2023-11-13T14:03:44.847Z,118145.56
2023-11-13T14:06:16.456Z,118609.78
2023-11-13T14:08:46.097Z,118922.59
2023-11-13T14:11:13.314Z,119365.56
2023-11-13T14:13:40.611Z,119864.59
2023-11-13T14:16:09.401Z,120302.88
2023-11-13T14:18:39.082Z,120723.69
2023-11-13T14:21:12.349Z,121240.34
2023-11-13T14:23:43.215Z,121635.19
2023-11-13T14:26:16.272Z,122023.28
2023-11-13T14:28:44.008Z,122526.44
2023-11-13T14:31:11.364Z,123092.72
2023-11-13T14:33:40.129Z,123717.03
2023-11-13T14:36:09.189Z,124248.34
2023-11-13T14:38:36.502Z,125597.63
2023-11-13T14:41:06.420Z,126339.69
2023-11-13T14:43:33.647Z,126971.78
2023-11-13T14:46:03.919Z,127569.53
2023-11-13T14:48:32.316Z,128168.63
2023-11-13T14:50:59.595Z,128386.00
2023-11-13T14:53:26.733Z,128818.63
2023-11-13T14:55:54.015Z,129159.41
2023-11-13T14:58:21.266Z,129904.94
2023-11-13T15:00:49.910Z,130535.91
2023-11-13T15:03:17.258Z,130915.59
2023-11-13T15:05:45.213Z,131464.06
2023-11-13T15:08:13.362Z,132170.25
2023-11-13T15:10:40.535Z,132837.25
2023-11-13T15:13:09.348Z,133180.38
2023-11-13T15:15:36.661Z,133392.66
2023-11-13T15:18:05.128Z,133768.03
2023-11-13T15:20:33.044Z,133699.56
2023-11-13T15:23:15.229Z,133765.84
2023-11-13T15:25:49.423Z,133559.28
2023-11-13T15:28:16.808Z,133941.41
2023-11-13T15:30:44.031Z,134038.25
2023-11-13T15:33:11.205Z,134319.25
2023-11-13T15:35:39.608Z,134526.66
2023-11-13T15:38:06.729Z,134786.44
2023-11-13T15:40:34.848Z,134936.13
2023-11-13T15:43:02.302Z,135250.09
2023-11-13T15:45:29.512Z,135659.56
2023-11-13T15:47:58.766Z,136109.13
2023-11-13T15:50:28.330Z,136939.63
2023-11-13T15:52:55.377Z,137449.56
2023-11-13T15:55:22.593Z,138360.03
2023-11-13T15:57:49.699Z,139247.09
2023-11-13T16:00:17.177Z,139552.78
2023-11-13T16:02:48.170Z,140131.25
2023-11-13T16:05:16.541Z,140233.91
2023-11-13T16:07:43.852Z,140475.63
2023-11-13T16:10:11.285Z,140871.91
2023-11-13T16:12:42.102Z,141077.09
2023-11-13T16:15:11.204Z,140917.69
2023-11-13T16:17:38.642Z,140974.88
2023-11-13T16:20:11.024Z,141062.66
2023-11-13T16:22:38.808Z,141107.25
2023-11-13T16:25:08.756Z,141540.09
2023-11-13T16:27:38.371Z,141874.66
2023-11-13T16:30:07.719Z,141998.31
2023-11-13T16:32:36.038Z,141960.16
2023-11-13T16:35:04.189Z,142072.09
2023-11-13T16:37:31.342Z,142210.66
2023-11-13T16:40:00.365Z,142189.38
2023-11-13T16:42:28.507Z,142240.31
2023-11-13T16:44:55.850Z,142123.03
2023-11-13T16:47:23.355Z,142171.59
2023-11-13T16:49:52.156Z,142438.09
2023-11-13T16:52:19.608Z,142361.44
2023-11-13T16:54:47.754Z,142361.44
2023-11-13T16:57:15.088Z,142437.44
2023-11-13T16:59:42.237Z,142387.25
2023-11-13T17:02:09.343Z,142486.78
2023-11-13T17:04:36.598Z,142547.06
2023-11-13T17:07:03.835Z,142465.69
2023-11-13T17:09:30.933Z,142660.78
2023-11-13T17:11:58.078Z,142664.56
2023-11-13T17:14:25.225Z,142719.03
2023-11-13T17:16:55.283Z,142658.03
2023-11-13T17:19:22.471Z,142522.84
2023-11-13T17:21:50.343Z,142467.34
2023-11-13T17:24:17.890Z,142536.91
2023-11-13T17:26:45.318Z,142395.03
2023-11-13T17:29:12.498Z,142424.66
2023-11-13T17:31:40.160Z,142281.88
2023-11-13T17:34:08.274Z,142159.44
2023-11-13T17:36:35.346Z,142274.44
2023-11-13T17:39:02.507Z,142188.53
2023-11-13T17:41:30.321Z,141860.09
2023-11-13T17:43:58.761Z,141601.34
2023-11-13T17:46:26.043Z,142369.41
2023-11-13T17:48:53.240Z,142789.69
2023-11-13T17:51:21.661Z,142987.28
2023-11-13T17:53:49.113Z,143617.75
2023-11-13T17:56:16.234Z,143962.03
2023-11-13T17:58:43.369Z,143815.81
2023-11-13T18:01:11.617Z,144301.53
2023-11-13T18:03:38.892Z,144324.50
2023-11-13T18:06:06.328Z,144352.88
2023-11-13T18:08:33.464Z,144302.16
2023-11-13T18:11:00.532Z,144070.44
2023-11-13T18:13:31.283Z,143927.25
2023-11-13T18:15:58.591Z,143768.09
2023-11-13T18:18:27.547Z,143561.53
2023-11-13T18:20:54.890Z,143169.53
2023-11-13T18:23:22.284Z,142969.31
2023-11-13T18:25:51.213Z,143005.78
2023-11-13T18:28:21.998Z,143039.59
2023-11-13T18:30:51.587Z,143003.94
2023-11-13T18:33:19.733Z,142911.53
2023-11-13T18:35:46.800Z,142683.88
2023-11-13T18:38:13.939Z,142644.56
2023-11-13T18:40:41.144Z,142569.72
2023-11-13T18:43:08.342Z,142565.81
2023-11-13T18:45:35.480Z,142602.34
2023-11-13T18:48:02.668Z,142490.41
2023-11-13T18:50:29.801Z,142651.56
2023-11-13T18:52:57.606Z,142564.41
2023-11-13T18:55:25.287Z,142614.59
2023-11-13T18:57:52.517Z,143160.81
2023-11-13T19:00:19.902Z,143352.59
2023-11-13T19:02:48.418Z,143238.63
2023-11-13T19:05:15.815Z,143424.00
2023-11-13T19:07:43.225Z,143424.97
2023-11-13T19:10:10.478Z,143416.81
2023-11-13T19:12:38.176Z,143373.94
2023-11-13T19:15:05.539Z,143266.78
2023-11-13T19:17:35.024Z,143265.50
2023-11-13T19:20:02.330Z,143180.31
2023-11-13T19:22:29.460Z,142938.84
2023-11-13T19:24:56.559Z,142864.53
2023-11-13T19:27:24.289Z,142789.34
2023-11-13T19:29:51.420Z,142692.78
2023-11-13T19:32:18.511Z,142463.84
2023-11-13T19:34:45.686Z,142213.81
2023-11-13T19:37:13.038Z,142038.56
2023-11-13T19:39:40.193Z,141754.19
2023-11-13T19:42:07.383Z,141436.13
2023-11-13T19:44:44.525Z,141187.81
2023-11-13T19:47:18.108Z,140157.31
2023-11-13T19:49:46.845Z,139680.88
2023-11-13T19:52:16.315Z,139186.94
2023-11-13T19:54:43.859Z,138879.31
2023-11-13T19:57:11.016Z,138503.78
2023-11-13T19:59:39.503Z,138282.63
2023-11-13T20:02:06.731Z,137964.13
2023-11-13T20:04:34.503Z,137787.25
2023-11-13T20:07:01.811Z,137570.81
2023-11-13T20:09:31.119Z,137353.34
2023-11-13T20:12:00.230Z,137159.69
2023-11-13T20:14:27.333Z,137081.72
2023-11-13T20:16:54.525Z,136793.72
2023-11-13T20:19:21.705Z,136467.31
2023-11-13T20:21:49.048Z,136326.03
2023-11-13T20:24:16.174Z,135975.03
2023-11-13T20:26:43.498Z,135845.44
2023-11-13T20:29:10.669Z,135634.38
2023-11-13T20:31:38.371Z,135417.94
2023-11-13T20:34:05.473Z,135258.28
2023-11-13T20:36:32.628Z,135112.66
2023-11-13T20:39:00.561Z,135014.72
2023-11-13T20:41:27.959Z,134847.53
2023-11-13T20:43:57.766Z,134656.66
2023-11-13T20:46:25.155Z,134437.94
2023-11-13T20:48:52.396Z,134331.19
2023-11-13T20:51:19.843Z,134196.56
2023-11-13T20:53:47.005Z,133977.81
2023-11-13T20:56:14.981Z,133761.97
2023-11-13T20:58:42.893Z,133435.19
2023-11-13T21:01:13.275Z,133005.97
2023-11-13T21:03:40.490Z,132877.31
2023-11-13T21:06:09.242Z,132837.53
2023-11-13T21:08:36.434Z,132653.66
2023-11-13T21:11:06.529Z,132499.00
2023-11-13T21:13:33.846Z,132366.19
2023-11-13T21:16:01.010Z,132200.66
2023-11-13T21:18:29.435Z,131998.66
2023-11-13T21:20:59.873Z,131876.09
2023-11-13T21:23:27.216Z,131628.44
2023-11-13T21:25:54.648Z,131762.44
2023-11-13T21:28:22.096Z,131489.72
2023-11-13T21:30:51.654Z,131487.75
2023-11-13T21:33:20.777Z,131260.81
2023-11-13T21:35:48.136Z,131229.59
2023-11-13T21:38:15.250Z,131086.84
2023-11-13T21:40:44.648Z,130970.75
2023-11-13T21:43:11.932Z,130893.44
2023-11-13T21:45:39.314Z,130721.94
2023-11-13T21:48:06.839Z,130708.03
2023-11-13T21:50:34.113Z,130425.72
2023-11-13T21:53:02.498Z,130359.09
2023-11-13T21:55:30.544Z,130072.56
2023-11-13T21:57:58.492Z,129897.34
2023-11-13T22:00:25.906Z,129752.00
2023-11-13T22:02:53.867Z,129687.47
2023-11-13T22:05:21.848Z,129632.19
2023-11-13T22:07:49.182Z,129602.91
2023-11-13T22:10:16.474Z,129647.47
2023-11-13T22:12:43.766Z,129549.78
2023-11-13T22:15:12.957Z,129385.88
2023-11-13T22:17:40.725Z,129223.13
2023-11-13T22:20:08.409Z,129267.59
2023-11-13T22:22:36.701Z,129337.56
2023-11-13T22:25:04.116Z,129325.09
2023-11-13T22:27:32.537Z,129328.88
2023-11-13T22:29:59.610Z,129370.66
2023-11-13T22:32:26.741Z,129349.50
2023-11-13T22:34:53.982Z,129399.44
2023-11-13T22:37:21.158Z,129383.16
2023-11-13T22:39:49.545Z,129331.59
2023-11-13T22:42:16.871Z,129285.50
2023-11-13T22:44:44.140Z,129186.22
2023-11-13T22:47:12.790Z,129093.41
2023-11-13T22:49:41.525Z,128962.16
2023-11-13T22:52:08.668Z,128814.63
2023-11-13T22:54:35.789Z,128620.56
2023-11-13T22:57:03.357Z,128460.13
2023-11-13T22:59:30.482Z,128294.28
2023-11-13T23:01:57.755Z,128105.16
2023-11-13T23:04:25.489Z,127923.53
2023-11-13T23:06:52.602Z,127708.53
2023-11-13T23:09:20.175Z,127522.75
2023-11-13T23:11:47.548Z,127195.22
2023-11-13T23:14:14.668Z,126877.69
2023-11-13T23:16:41.961Z,126298.25
2023-11-13T23:19:09.155Z,125797.09
2023-11-13T23:21:41.264Z,125240.78
2023-11-13T23:24:11.502Z,124660.38
2023-11-13T23:26:38.587Z,124221.63
2023-11-13T23:29:07.096Z,123558.22
2023-11-13T23:31:34.644Z,122835.38
2023-11-13T23:34:01.803Z,122173.97
2023-11-13T23:36:28.891Z,121489.09
2023-11-13T23:38:56.068Z,120784.09
2023-11-13T23:41:23.247Z,120087.28
2023-11-13T23:43:50.382Z,119378.13
2023-11-13T23:46:17.571Z,118655.59
2023-11-13T23:48:44.712Z,117997.66
2023-11-13T23:51:12.424Z,117349.94
2023-11-13T23:53:39.523Z,116685.84
2023-11-13T23:56:06.832Z,116063.88
2023-11-13T23:58:33.975Z,115432.28
